Fridtjof Nansen — DGLS — position and weather

sailwx.info

Track history (hours):
 
Tides and Currents Weather Stations Pressure Air Temp Water Temp Dewpoint Dewpoint Depression Visibility Wind Speed Wind Dir Waves Ship Positions

Fridtjof Nansen (Germany)

Last reported at 2019-Apr-26 03:03 UTC. Time now 2019-Apr-26 03:45 UTC.
Position N 53°54' E 011°27'.

Length 48 m; draft 2.7 m.

Type: Sailing vessel. MMSI: 211364430.

Date/timePositionNaut miles runAvg speedWind from/ knotsBaromVisibWave heightAir tempDewpointWater temp
2019-Apr-26 03:03N 53°54' E 011°27'  
2019-Apr-22 08:24N 53°54' E 011°27'1 2.6
2019-Apr-22 08:00N 53°55' E 011°26'2 4.6
2019-Apr-22 07:31N 53°57' E 011°25'3 1.7
2019-Apr-22 05:43N 53°59' E 011°21'0 0.0
2019-Apr-22 05:28N 53°59' E 011°21'0 0.0
2019-Apr-22 04:58N 53°59' E 011°21'0 0.0
2019-Apr-22 04:19N 53°59' E 011°21'0 0.0
2019-Apr-22 03:55N 53°59' E 011°21'0 0.0
2019-Apr-22 02:58N 53°59' E 011°21'0 0.0
2019-Apr-21 20:12N 53°59' E 011°21'0 0.0
2019-Apr-21 15:57N 53°59' E 011°21'14 0.3
2019-Apr-19 22:18N 54°07' E 011°02'0 0.0
2019-Apr-19 16:55N 54°07' E 011°03'2 4.0
2019-Apr-19 16:30N 54°07' E 011°05'2 4.8
2019-Apr-19 16:00N 54°07' E 011°09'2 4.6
2019-Apr-19 15:30N 54°06' E 011°13'3 4.1
2019-Apr-19 14:41N 54°04' E 011°17'5 3.8
2019-Apr-19 13:30N 53°60' E 011°21'2 3.6
2019-Apr-19 13:00N 53°58' E 011°22'2 4.1
2019-Apr-19 12:31N 53°57' E 011°25'2 4.4
2019-Apr-19 11:59N 53°55' E 011°26'  
Track history (hours):
 
Tides and Currents Weather Stations Pressure Air Temp Water Temp Dewpoint Dewpoint Depression Visibility Wind Speed Wind Dir Waves Ship Positions

Fridtjof Nansen (Germany)

Last reported at 2019-Apr-26 03:03 UTC. Time now 2019-Apr-26 03:45 UTC.
Position N 53°54' E 011°27'.

Length 48 m; draft 2.7 m.

Type: Sailing vessel. MMSI: 211364430.

Date/timePositionNaut miles runAvg speedWind from/ knotsBaromVisibWave heightAir tempDewpointWater temp
2019-Apr-26 03:03N 53°54' E 011°27'  
2019-Apr-22 08:24N 53°54' E 011°27'1 2.6
2019-Apr-22 08:00N 53°55' E 011°26'2 4.6
2019-Apr-22 07:31N 53°57' E 011°25'3 1.7
2019-Apr-22 05:43N 53°59' E 011°21'0 0.0
2019-Apr-22 05:28N 53°59' E 011°21'0 0.0
2019-Apr-22 04:58N 53°59' E 011°21'0 0.0
2019-Apr-22 04:19N 53°59' E 011°21'0 0.0
2019-Apr-22 03:55N 53°59' E 011°21'0 0.0
2019-Apr-22 02:58N 53°59' E 011°21'0 0.0
2019-Apr-21 20:12N 53°59' E 011°21'0 0.0
2019-Apr-21 15:57N 53°59' E 011°21'14 0.3
2019-Apr-19 22:18N 54°07' E 011°02'0 0.0
2019-Apr-19 16:55N 54°07' E 011°03'2 4.0
2019-Apr-19 16:30N 54°07' E 011°05'2 4.8
2019-Apr-19 16:00N 54°07' E 011°09'2 4.6
2019-Apr-19 15:30N 54°06' E 011°13'3 4.1
2019-Apr-19 14:41N 54°04' E 011°17'5 3.8
2019-Apr-19 13:30N 53°60' E 011°21'2 3.6
2019-Apr-19 13:00N 53°58' E 011°22'2 4.1
2019-Apr-19 12:31N 53°57' E 011°25'2 4.4
2019-Apr-19 11:59N 53°55' E 011°26'  

Dump ship's entire track history